Terminal Aerodrome Forecast
Issued by NWS

Home | Current Version | Previous Version | Text Only | Print | Product List | Glossary On
Versions: 1 2 3 4 5 6 7 8 9 10 11 12 13 14 15 16
000
FTUS45 KGJT 191131
TAFTEX
TAF
KTEX 191131Z 1912/2012 15010G21KT P6SM SKC WS020/21035KT
     FM191500 18012G24KT P6SM SKC
     FM191700 20017G33KT P6SM SKC
     FM200300 16010KT P6SM SKC
     FM200800 13008KT P6SM SKC=

USA.gov is the U.S. government's official web portal to all federal, state and local government web resources and services.